Weather History for KIOB - June, 2013

Change the Weather History Date:

Thursday, June 13, 2013

  Actual Average Record
Temperature  
Mean Temperature 70 °F -  
Max Temperature 80 °F 81 °F 87 °F (2015)
Min Temperature 60 °F 60 °F 59 °F (2014)
Cooling Degree Days 5    
Growing Degree Days 20 (Base 50)    
Moisture  
Dew Point 67 °F    
Average Humidity 79    
Maximum Humidity 100    
Minimum Humidity 57    
Precipitation  
Precipitation 0.41 in - - ()
Sea Level Pressure  
Sea Level Pressure 29.82 in    
Wind  
Wind Speed 11 mph (WNW)    
Max Wind Speed 20 mph    
Max Gust Speed 41 mph    
Visibility 10 miles    
Events Rain    
Averages and records for this station are not official NWS values.
T = Trace of Precipitation, MM = Missing Value Source: NWS Daily Summary

Daily Weather History Graph

Daily Weather History Graph

Search for Another Location

Airport or City:

Trip Planner

Search our weather history database for the weather conditions in past years. The results will help you decide how hot, cold, wet, or windy it might be!

Date:

Astronomy

Jun. 13, 2013 Rise Set
Actual Time 6:12 AM EDT 8:59 PM EDT
Civil Twilight 5:41 AM EDT 9:31 PM EDT
Nautical Twilight 5:01 AM EDT 10:10 PM EDT
Astronomical Twilight 4:17 AM EDT 10:55 PM EDT
Moon 10:44 AM EDT (6/13) No Moon Set
Length of Visible Light 15h 50m
Length of Day
14h 47m
Waxing Crescent, 21% of the Moon is Illuminated
Jun 13
Waxing Crescent
Jun 16
First Quarter
Jun 23
Full
Jun 30
Last Quarter
Jul 8
New

Hourly Weather History & Observations

Time (EDT) Temp. Heat Index Dew Point Humidity Pressure Visibility Wind Dir Wind Speed Gust Speed Precip Events Conditions
12:15 AM 77.0 °F - 69.8 °F 78% 29.87 in 10.0 mi West 9.2 mph - N/A   Scattered Clouds
12:35 AM 78.8 °F - 69.8 °F 74% 29.87 in 10.0 mi WSW 9.2 mph - N/A   Scattered Clouds
12:55 AM 78.8 °F - 69.8 °F 74% 29.87 in 10.0 mi WSW 11.5 mph 16.1 mph N/A   Scattered Clouds
1:15 AM 78.8 °F - 69.8 °F 74% 29.86 in 10.0 mi WSW 9.2 mph 17.3 mph N/A   Mostly Cloudy
1:35 AM 78.8 °F - 69.8 °F 74% 29.85 in 10.0 mi WSW 11.5 mph 17.3 mph N/A   Mostly Cloudy
1:55 AM 78.8 °F - 69.8 °F 74% 29.84 in 10.0 mi WSW 12.7 mph 19.6 mph N/A   Scattered Clouds
2:15 AM 78.8 °F - 69.8 °F 74% 29.83 in 10.0 mi WSW 13.8 mph 19.6 mph N/A   Mostly Cloudy
2:35 AM 78.8 °F - 69.8 °F 74% 29.82 in 10.0 mi WSW 15.0 mph 20.7 mph N/A   Scattered Clouds
2:55 AM 78.8 °F - 69.8 °F 74% 29.82 in 10.0 mi West 16.1 mph 26.5 mph N/A   Scattered Clouds
3:15 AM 78.8 °F - 69.8 °F 74% 29.81 in 10.0 mi WSW 12.7 mph 23.0 mph N/A   Clear
3:35 AM 78.8 °F - 69.8 °F 74% 29.80 in 10.0 mi West 13.8 mph 23.0 mph N/A   Clear
3:55 AM 78.8 °F - 69.8 °F 74% 29.79 in 10.0 mi WSW 15.0 mph 23.0 mph N/A   Clear
4:15 AM 78.8 °F - 69.8 °F 74% 29.78 in 10.0 mi WSW 17.3 mph 25.3 mph N/A   Clear
4:35 AM 78.8 °F - 69.8 °F 74% 29.78 in 10.0 mi WSW 15.0 mph 23.0 mph N/A   Clear
4:55 AM 78.8 °F - 69.8 °F 74% 29.77 in 10.0 mi WSW 17.3 mph 27.6 mph N/A   Scattered Clouds
5:15 AM 78.8 °F - 69.8 °F 74% 29.77 in 10.0 mi West 18.4 mph 25.3 mph N/A   Mostly Cloudy
5:35 AM 78.8 °F - 69.8 °F 74% 29.76 in 10.0 mi WSW 16.1 mph 23.0 mph N/A   Overcast
5:55 AM 77.0 °F - 69.8 °F 78% 29.76 in 10.0 mi WSW 15.0 mph 21.9 mph N/A   Overcast
6:15 AM 77.0 °F - 69.8 °F 78% 29.76 in 10.0 mi West 11.5 mph 21.9 mph N/A   Overcast
6:35 AM 77.0 °F - 69.8 °F 78% 29.76 in 10.0 mi West 11.5 mph 23.0 mph N/A   Mostly Cloudy
6:55 AM 77.0 °F - 71.6 °F 83% 29.76 in 10.0 mi West 12.7 mph 20.7 mph N/A   Mostly Cloudy
7:15 AM 77.0 °F - 71.6 °F 83% 29.76 in 10.0 mi West 13.8 mph 19.6 mph N/A   Overcast
7:35 AM 77.0 °F - 71.6 °F 83% 29.75 in 10.0 mi West 12.7 mph 23.0 mph N/A   Overcast
7:55 AM 77.0 °F - 71.6 °F 83% 29.76 in 10.0 mi West 11.5 mph 20.7 mph N/A   Scattered Clouds
8:15 AM 78.8 °F - 71.6 °F 78% 29.75 in 10.0 mi West 11.5 mph 19.6 mph N/A   Mostly Cloudy
8:35 AM 78.8 °F - 71.6 °F 78% 29.74 in 10.0 mi West 13.8 mph 26.5 mph N/A   Mostly Cloudy
8:55 AM 78.8 °F - 71.6 °F 78% 29.73 in 10.0 mi West 17.3 mph 25.3 mph N/A   Overcast
9:15 AM 78.8 °F - 71.6 °F 78% 29.72 in 10.0 mi West 19.6 mph 28.8 mph N/A   Overcast
9:35 AM 80.6 °F 84.6 °F 71.6 °F 74% 29.73 in 10.0 mi West 12.7 mph 21.9 mph N/A   Mostly Cloudy
9:55 AM 78.8 °F - 71.6 °F 78% 29.73 in 10.0 mi West 16.1 mph 23.0 mph N/A   Mostly Cloudy
10:15 AM 78.8 °F - 71.6 °F 78% 29.73 in 10.0 mi West 18.4 mph 24.2 mph N/A   Overcast
10:35 AM 80.6 °F 84.6 °F 71.6 °F 74% 29.73 in 10.0 mi West 15.0 mph 26.5 mph N/A   Overcast
10:55 AM 78.8 °F - 71.6 °F 78% 29.71 in 10.0 mi West 12.7 mph 23.0 mph N/A   Overcast
11:15 AM 68.0 °F - 64.4 °F 88% 29.78 in 1.2 mi WNW 17.3 mph 41.4 mph 0.26 in Rain Heavy Rain
11:35 AM 66.2 °F - 64.4 °F 94% 29.76 in 10.0 mi West 10.4 mph - 0.28 in Rain Light Rain
11:55 AM 68.0 °F - 66.2 °F 94% 29.78 in 10.0 mi WNW 9.2 mph - 0.28 in   Mostly Cloudy
12:15 PM 68.0 °F - 68.0 °F 100% 29.76 in 10.0 mi WNW 5.8 mph - N/A   Scattered Clouds
12:35 PM 69.8 °F - 68.0 °F 94% 29.79 in 10.0 mi NW 9.2 mph - N/A   Scattered Clouds
12:55 PM 71.6 °F - 68.0 °F 88% 29.80 in 10.0 mi NNW 13.8 mph 19.6 mph N/A   Mostly Cloudy
1:15 PM 73.4 °F - 68.0 °F 83% 29.79 in 10.0 mi NNW 11.5 mph 23.0 mph N/A   Mostly Cloudy
1:35 PM 73.4 °F - 68.0 °F 83% 29.80 in 10.0 mi North 9.2 mph 17.3 mph N/A   Overcast
1:55 PM 73.4 °F - 66.2 °F 78% 29.82 in 10.0 mi NNW 5.8 mph 19.6 mph N/A   Overcast
2:15 PM 75.2 °F - 66.2 °F 73% 29.82 in 10.0 mi North 13.8 mph 19.6 mph N/A   Mostly Cloudy
2:35 PM 73.4 °F - 64.4 °F 73% 29.83 in 10.0 mi North 8.1 mph - N/A   Overcast
2:55 PM 69.8 °F - 64.4 °F 83% 29.83 in 7.0 mi North 9.2 mph 19.6 mph 0.03 in Rain Rain
3:15 PM 69.8 °F - 66.2 °F 88% 29.84 in 10.0 mi NNW 4.6 mph - N/A   Light Drizzle
3:35 PM 73.4 °F - 68.0 °F 83% 29.83 in 10.0 mi NNW 8.1 mph - N/A   Mostly Cloudy
3:55 PM 75.2 °F - 68.0 °F 78% 29.83 in 10.0 mi NNW 10.4 mph - N/A   Mostly Cloudy
4:55 PM 69.8 °F - 69.8 °F 100% 29.85 in 10.0 mi NNW 5.8 mph - 0.09 in   Mostly Cloudy
5:15 PM 71.6 °F - 68.0 °F 88% 29.85 in 10.0 mi NNW 9.2 mph - N/A   Mostly Cloudy
5:35 PM 71.6 °F - 66.2 °F 83% 29.86 in 10.0 mi North 11.5 mph 17.3 mph N/A   Mostly Cloudy
5:55 PM 73.4 °F - 64.4 °F 73% 29.86 in 10.0 mi NNE 13.8 mph 23.0 mph 0.01 in   Mostly Cloudy
6:15 PM 73.4 °F - 60.8 °F 65% 29.87 in 10.0 mi North 12.7 mph 17.3 mph N/A   Mostly Cloudy
6:35 PM 73.4 °F - 60.8 °F 65% 29.88 in 10.0 mi North 9.2 mph 16.1 mph N/A   Scattered Clouds
6:55 PM 71.6 °F - 59.0 °F 64% 29.88 in 10.0 mi North 12.7 mph 18.4 mph N/A   Clear
7:15 PM 73.4 °F - 57.2 °F 57% 29.89 in 10.0 mi North 9.2 mph - N/A   Scattered Clouds
7:35 PM 71.6 °F - 55.4 °F 57% 29.89 in 10.0 mi NNE 8.1 mph - N/A   Clear
7:55 PM 71.6 °F - 57.2 °F 60% 29.89 in 10.0 mi North 6.9 mph - N/A   Clear
8:15 PM 71.6 °F - 57.2 °F 60% 29.89 in 10.0 mi North 3.5 mph - N/A   Clear
8:35 PM 69.8 °F - 59.0 °F 68% 29.90 in 10.0 mi NNW 3.5 mph - N/A   Clear
8:55 PM 68.0 °F - 60.8 °F 78% 29.90 in 10.0 mi Calm Calm - N/A   Clear
9:15 PM 64.4 °F - 60.8 °F 88% 29.90 in 10.0 mi Calm Calm - N/A   Clear
9:35 PM 62.6 °F - 60.8 °F 94% 29.91 in 10.0 mi Calm Calm - N/A   Clear
9:55 PM 62.6 °F - 60.8 °F 94% 29.91 in 10.0 mi NW 3.5 mph - N/A   Clear
10:15 PM 62.6 °F - 60.8 °F 94% 29.92 in 10.0 mi Calm Calm - N/A   Clear
10:35 PM 60.8 °F - 60.8 °F 100% 29.93 in 10.0 mi Calm Calm - N/A   Clear
10:55 PM 60.8 °F - 60.8 °F 100% 29.94 in 10.0 mi NW 3.5 mph - N/A   Clear
11:15 PM 60.8 °F - 59.0 °F 94% 29.95 in 10.0 mi NW 4.6 mph - N/A   Clear
11:35 PM 62.6 °F - 59.0 °F 88% 29.95 in 10.0 mi NW 5.8 mph - N/A   Scattered Clouds
11:55 PM 62.6 °F - 59.0 °F 88% 29.96 in 10.0 mi NW 5.8 mph - N/A   Clear